Time;durP1;ratioP1;P1;durP2;ratioP2;P2;SDS_P1;SDS_P2;PMS_P1;PMS_P2;Temp;Humidity;BMP_temperature;BMP_pressure;BME280_temperature;BME280_humidity;BME280_pressure;Samples;Min_cycle;Max_cycle;Signal;HPM_P1;HPM_P2
2021/12/24 00:00:49;;;;;;;6.93;1.25;;;25.60;99.90;;;;;;4953081;28;20031;-67
2021/12/24 00:03:16;;;;;;;9.27;2.20;;;25.70;99.90;;;;;;4958187;28;20046;-68
2021/12/24 00:05:44;;;;;;;4.80;1.55;;;25.70;99.90;;;;;;4959828;28;20046;-66
2021/12/24 00:08:12;;;;;;;6.22;1.27;;;25.60;99.90;;;;;;4961403;28;20082;-67
2021/12/24 00:10:40;;;;;;;6.50;1.20;;;25.60;99.90;;;;;;4960363;28;20022;-67
2021/12/24 00:13:12;;;;;;;4.85;1.67;;;25.50;99.90;;;;;;4967844;28;20078;-66
2021/12/24 00:18:37;;;;;;;7.30;1.60;;;25.50;99.90;;;;;;4957278;28;20079;-67
2021/12/24 00:37:10;;;;;;;6.15;1.73;;;25.50;99.90;;;;;;4970500;28;20158;-65
2021/12/24 00:39:47;;;;;;;5.88;1.92;;;25.40;99.90;;;;;;4971874;28;20042;-66
2021/12/24 00:42:15;;;;;;;6.63;1.88;;;25.30;99.90;;;;;;4956175;28;20042;-67
2021/12/24 00:44:42;;;;;;;8.80;2.63;;;25.40;99.90;;;;;;4952800;28;20019;-65
2021/12/24 00:47:09;;;;;;;3.97;1.40;;;25.50;99.90;;;;;;4952821;28;20027;-67
2021/12/24 00:49:37;;;;;;;7.10;1.77;;;25.60;99.90;;;;;;4952679;28;20027;-66
2021/12/24 00:52:20;;;;;;;3.10;1.30;;;25.60;99.90;;;;;;4952558;28;20171;-66
2021/12/24 00:55:09;;;;;;;8.38;1.83;;;25.70;99.90;;;;;;4952606;28;20046;-66
2021/12/24 00:57:43;;;;;;;7.50;1.77;;;25.70;99.90;;;;;;4952839;28;20054;-67
2021/12/24 01:00:18;;;;;;;6.85;1.70;;;25.90;99.90;;;;;;4951643;28;20032;-66
2021/12/24 01:02:46;;;;;;;7.45;1.80;;;26.00;99.90;;;;;;4952499;28;20122;-66
2021/12/24 01:05:16;;;;;;;8.95;1.88;;;26.00;99.90;;;;;;4952267;29;20027;-66
2021/12/24 01:07:45;;;;;;;6.70;2.40;;;25.90;99.90;;;;;;4952396;28;20039;-67
2021/12/24 01:10:15;;;;;;;8.23;2.13;;;26.00;99.90;;;;;;4952108;28;20158;-66
2021/12/24 01:12:42;;;;;;;7.40;1.70;;;26.10;99.90;;;;;;4951956;28;20039;-65
2021/12/24 01:15:11;;;;;;;7.85;1.70;;;26.10;99.90;;;;;;4956545;28;20039;-65
2021/12/24 01:17:45;;;;;;;8.02;1.58;;;26.20;99.90;;;;;;4963036;28;20053;-66
2021/12/24 01:20:29;;;;;;;6.97;1.77;;;26.30;99.90;;;;;;4968698;28;20125;-66
2021/12/24 01:25:51;;;;;;;8.75;1.50;;;26.70;99.90;;;;;;4961486;28;20085;-68
2021/12/24 01:44:53;;;;;;;7.63;1.60;;;27.60;99.90;;;;;;4960718;28;20103;-67
2021/12/24 01:47:21;;;;;;;7.25;1.63;;;27.70;99.90;;;;;;4967507;28;20027;-65
2021/12/24 01:49:48;;;;;;;6.28;1.63;;;27.90;99.90;;;;;;4971153;28;20027;-68
2021/12/24 01:52:16;;;;;;;8.63;1.65;;;28.10;99.90;;;;;;4973786;28;20034;-68
2021/12/24 01:54:45;;;;;;;6.47;1.75;;;28.10;99.90;;;;;;4974879;28;20077;-69
2021/12/24 01:57:13;;;;;;;6.20;1.70;;;28.10;99.80;;;;;;4974274;28;20110;-68
2021/12/24 01:59:41;;;;;;;6.95;2.42;;;28.20;99.90;;;;;;4974916;28;20493;-67
2021/12/24 02:02:09;;;;;;;7.97;1.92;;;28.30;99.60;;;;;;4974928;28;20031;-68
2021/12/24 02:04:37;;;;;;;7.50;1.80;;;28.40;99.60;;;;;;4974848;28;20084;-69
2021/12/24 02:07:05;;;;;;;6.50;1.83;;;28.40;99.50;;;;;;4975048;28;20030;-70
2021/12/24 02:09:36;;;;;;;9.52;2.10;;;28.30;99.90;;;;;;4974962;28;20483;-69
2021/12/24 02:12:09;;;;;;;8.73;1.88;;;28.40;99.90;;;;;;4974973;28;20042;-68
2021/12/24 02:14:39;;;;;;;10.95;1.90;;;28.60;99.90;;;;;;4975109;28;20041;-70
2021/12/24 02:30:46;;;;;;;8.85;2.63;;;29.00;98.20;;;;;;4955065;28;20388;-69
2021/12/24 02:33:13;;;;;;;8.63;2.67;;;29.00;99.70;;;;;;4954665;28;20504;-69
2021/12/24 02:35:41;;;;;;;9.82;3.97;;;29.20;97.50;;;;;;4954747;28;20387;-68
2021/12/24 02:38:09;;;;;;;7.05;3.10;;;29.20;97.20;;;;;;4954639;28;20027;-70
2021/12/24 02:40:37;;;;;;;6.55;2.15;;;29.10;97.40;;;;;;4955098;28;20019;-68
2021/12/24 02:43:09;;;;;;;6.30;2.03;;;29.10;97.70;;;;;;4953554;28;20027;-70
2021/12/24 02:45:38;;;;;;;5.68;1.98;;;29.30;97.00;;;;;;4955037;28;20023;-69
2021/12/24 02:56:08;;;;;;;6.05;2.45;;;29.80;95.70;;;;;;4954588;28;20085;-69
2021/12/24 02:58:42;;;;;;;5.80;2.60;;;30.00;94.90;;;;;;4954821;28;20050;-67
2021/12/24 03:01:11;;;;;;;7.72;4.20;;;29.90;95.20;;;;;;4954766;28;20502;-70
2021/12/24 03:03:39;;;;;;;4.97;1.95;;;30.10;94.90;;;;;;4954667;28;20032;-68
2021/12/24 03:06:07;;;;;;;4.72;1.95;;;30.40;94.10;;;;;;4954171;28;20104;-68
2021/12/24 03:08:35;;;;;;;6.53;2.13;;;30.70;93.60;;;;;;4974040;28;20467;-69
2021/12/24 03:11:03;;;;;;;5.25;1.67;;;31.00;94.00;;;;;;4974376;28;20038;-67
2021/12/24 03:13:30;;;;;;;6.80;2.08;;;31.40;93.00;;;;;;4974561;28;20035;-69
2021/12/24 03:16:00;;;;;;;6.28;2.05;;;31.80;92.10;;;;;;4974727;28;20102;-70
2021/12/24 03:18:30;;;;;;;5.10;2.00;;;32.00;91.10;;;;;;4973894;28;20109;-68
2021/12/24 03:21:07;;;;;;;6.23;1.97;;;32.30;90.70;;;;;;4973902;28;20062;-68
2021/12/24 03:23:42;;;;;;;5.45;2.05;;;32.40;90.30;;;;;;4972802;28;20049;-69
2021/12/24 03:26:13;;;;;;;4.75;1.90;;;32.80;89.20;;;;;;4972973;28;20037;-68
2021/12/24 03:28:42;;;;;;;6.68;2.17;;;33.00;87.40;;;;;;4973073;28;20030;-69
2021/12/24 03:31:10;;;;;;;5.47;1.77;;;33.20;87.40;;;;;;4972678;28;20035;-68
2021/12/24 03:33:38;;;;;;;5.38;2.08;;;33.70;86.70;;;;;;4973331;28;20031;-68
2021/12/24 03:36:08;;;;;;;8.32;2.25;;;33.30;83.90;;;;;;4974152;28;20058;-69
2021/12/24 03:38:36;;;;;;;6.30;1.80;;;33.10;85.10;;;;;;4974290;28;20484;-69
2021/12/24 03:41:04;;;;;;;6.38;2.35;;;33.80;83.50;;;;;;4956782;28;20547;-70
2021/12/24 03:43:32;;;;;;;8.18;2.17;;;34.20;80.80;;;;;;4964363;28;20031;-70
2021/12/24 03:46:04;;;;;;;5.68;1.80;;;34.50;80.10;;;;;;4962907;28;20019;-72
2021/12/24 03:48:55;;;;;;;6.47;2.05;;;34.60;78.90;;;;;;4961132;28;20395;-70
2021/12/24 03:51:37;;;;;;;4.90;1.70;;;34.80;79.20;;;;;;4973666;28;20090;-69
2021/12/24 03:56:50;;;;;;;6.60;2.08;;;34.80;78.20;;;;;;4973415;28;20396;-71
2021/12/24 03:59:18;;;;;;;5.05;2.10;;;34.90;77.30;;;;;;4969616;28;20174;-71
2021/12/24 04:01:45;;;;;;;6.93;2.00;;;34.90;77.50;;;;;;4960206;28;20058;-70
2021/12/24 04:04:13;;;;;;;6.70;2.08;;;34.90;77.10;;;;;;4966655;28;20663;-70
2021/12/24 04:06:41;;;;;;;8.52;1.70;;;34.90;77.30;;;;;;4968358;28;20041;-70
2021/12/24 04:09:09;;;;;;;9.00;1.70;;;35.00;77.00;;;;;;4968964;28;20431;-76
2021/12/24 04:11:39;;;;;;;5.95;1.92;;;35.10;76.40;;;;;;4968840;28;20023;-69
2021/12/24 04:14:06;;;;;;;6.80;2.03;;;35.40;75.80;;;;;;4968628;28;20038;-72
2021/12/24 04:16:34;;;;;;;5.68;1.73;;;34.90;77.60;;;;;;4969099;28;20027;-70
2021/12/24 04:27:10;;;;;;;8.15;1.98;;;35.40;75.10;;;;;;4968312;28;20058;-73
2021/12/24 04:29:39;;;;;;;10.45;2.10;;;35.50;74.30;;;;;;4972479;28;20023;-73
2021/12/24 04:32:13;;;;;;;183.00;18.50;;;35.50;74.50;;;;;;4973129;28;20065;-73
2021/12/24 04:34:45;;;;;;;7.32;1.75;;;35.00;75.10;;;;;;4973411;28;20039;-75
2021/12/24 04:51:14;;;;;;;7.60;2.30;;;35.70;73.40;;;;;;4969291;28;20034;-79
2021/12/24 05:04:34;;;;;;;6.10;2.08;;;35.00;74.20;;;;;;4973242;28;20022;-80
2021/12/24 05:07:20;;;;;;;8.85;2.40;;;35.00;74.30;;;;;;4968300;28;20042;-76
2021/12/24 05:09:48;;;;;;;8.10;1.95;;;34.60;75.30;;;;;;4966327;28;20545;-76
2021/12/24 05:12:15;;;;;;;8.93;2.45;;;34.40;75.70;;;;;;4966687;28;20023;-76
2021/12/24 05:14:43;;;;;;;7.78;2.45;;;34.60;75.80;;;;;;4967411;28;20125;-76
2021/12/24 05:17:27;;;;;;;8.88;1.80;;;34.50;76.10;;;;;;4967846;28;20030;-76
2021/12/24 05:22:40;;;;;;;9.20;2.13;;;34.50;76.20;;;;;;4967210;28;20057;-77
2021/12/24 05:25:08;;;;;;;9.63;1.80;;;34.60;75.80;;;;;;4967383;28;20027;-76
2021/12/24 05:27:36;;;;;;;7.45;1.95;;;34.40;77.30;;;;;;4969542;28;20522;-76
2021/12/24 05:30:05;;;;;;;6.28;1.77;;;34.40;76.50;;;;;;4970837;28;20713;-79
2021/12/24 05:32:32;;;;;;;9.77;2.00;;;34.20;77.00;;;;;;4970991;28;20019;-76
2021/12/24 05:35:00;;;;;;;10.68;2.58;;;33.90;77.30;;;;;;4971646;28;20109;-77
2021/12/24 05:37:27;;;;;;;6.97;2.13;;;33.70;78.50;;;;;;4970943;28;20038;-77
2021/12/24 05:39:54;;;;;;;10.38;2.28;;;33.20;79.60;;;;;;4970962;28;20026;-78
2021/12/24 05:42:24;;;;;;;10.75;3.22;;;32.90;80.50;;;;;;4969776;28;21027;-76
2021/12/24 05:44:51;;;;;;;9.93;2.70;;;33.00;80.40;;;;;;4971472;28;20039;-77
2021/12/24 05:47:18;;;;;;;7.85;2.50;;;33.10;80.40;;;;;;4970420;28;20038;-77
2021/12/24 05:49:46;;;;;;;7.22;1.95;;;33.00;80.80;;;;;;4974299;28;20442;-77
2021/12/24 05:52:13;;;;;;;8.20;2.05;;;32.80;81.40;;;;;;4976234;28;20077;-77
2021/12/24 05:54:40;;;;;;;8.73;2.17;;;32.50;81.60;;;;;;4976012;28;20034;-78
2021/12/24 05:57:07;;;;;;;11.70;2.47;;;32.10;82.20;;;;;;4976088;28;20379;-77
2021/12/24 05:59:35;;;;;;;5.53;1.92;;;31.70;83.80;;;;;;4976084;28;20027;-77
2021/12/24 06:02:02;;;;;;;13.57;3.67;;;31.60;84.60;;;;;;4975632;28;20046;-78
2021/12/24 06:04:29;;;;;;;12.52;2.78;;;31.40;84.90;;;;;;4971350;28;20030;-77
2021/12/24 06:06:58;;;;;;;13.68;3.58;;;31.30;85.80;;;;;;4970451;28;20042;-79
2021/12/24 06:09:26;;;;;;;10.55;2.50;;;31.30;85.90;;;;;;4970302;28;20019;-76
2021/12/24 06:11:53;;;;;;;9.88;2.85;;;31.00;86.80;;;;;;4970590;28;20113;-77
2021/12/24 06:14:20;;;;;;;14.32;2.80;;;30.90;86.90;;;;;;4970204;28;20039;-77
2021/12/24 06:16:51;;;;;;;13.48;2.50;;;30.80;87.50;;;;;;4970420;28;20027;-77
2021/12/24 06:19:19;;;;;;;8.82;2.42;;;30.70;87.90;;;;;;4967884;28;20495;-77
2021/12/24 06:21:46;;;;;;;13.82;3.33;;;30.60;88.30;;;;;;4970064;28;20035;-73
2021/12/24 06:24:14;;;;;;;8.75;2.50;;;30.60;88.60;;;;;;4970129;28;20134;-74
2021/12/24 06:26:41;;;;;;;10.77;2.40;;;30.70;89.10;;;;;;4970329;28;20031;-75
2021/12/24 06:29:08;;;;;;;14.98;3.03;;;30.80;88.40;;;;;;4964819;28;20472;-77
2021/12/24 06:31:36;;;;;;;12.00;2.95;;;30.80;89.10;;;;;;4969087;28;20085;-74
2021/12/24 06:34:03;;;;;;;9.63;2.47;;;30.80;88.80;;;;;;4967873;28;20031;-75
2021/12/24 06:36:34;;;;;;;11.70;2.75;;;30.70;88.80;;;;;;4966720;28;20049;-77
2021/12/24 06:39:04;;;;;;;11.60;3.30;;;30.70;89.30;;;;;;4964442;28;20027;-76
2021/12/24 06:41:32;;;;;;;12.35;2.80;;;30.20;90.20;;;;;;4967269;28;20594;-77
2021/12/24 06:44:00;;;;;;;8.95;2.80;;;30.10;90.20;;;;;;4969216;28;20030;-81
2021/12/24 06:46:28;;;;;;;9.23;3.40;;;30.10;90.20;;;;;;4969316;28;20125;-78
2021/12/24 06:48:56;;;;;;;11.85;3.67;;;30.00;90.50;;;;;;4968782;28;20608;-83
2021/12/24 06:51:27;;;;;;;12.50;3.58;;;29.80;90.90;;;;;;4968638;28;20228;-76
2021/12/24 06:53:55;;;;;;;9.53;3.40;;;29.70;91.30;;;;;;4968853;28;20054;-76
2021/12/24 06:56:23;;;;;;;12.73;2.97;;;29.80;90.90;;;;;;4969523;28;20269;-74
2021/12/24 06:58:50;;;;;;;9.68;3.13;;;29.60;91.10;;;;;;4968249;28;20631;-80
2021/12/24 07:01:18;;;;;;;13.50;4.15;;;29.60;91.10;;;;;;4967976;28;20026;-81
2021/12/24 07:03:45;;;;;;;11.18;3.22;;;29.30;91.60;;;;;;4968900;28;20123;-75
2021/12/24 07:06:13;;;;;;;11.73;2.42;;;29.40;91.40;;;;;;4967119;28;20026;-73
2021/12/24 07:08:40;;;;;;;12.50;3.45;;;29.40;91.40;;;;;;4967867;28;20035;-81
2021/12/24 07:11:08;;;;;;;10.20;2.95;;;29.30;91.60;;;;;;4972789;28;20603;-75
2021/12/24 07:13:35;;;;;;;10.98;3.65;;;29.10;92.00;;;;;;4973048;28;20443;-74
2021/12/24 07:16:02;;;;;;;13.07;3.92;;;28.80;92.30;;;;;;4972006;28;20030;-74
2021/12/24 07:18:30;;;;;;;11.57;3.50;;;28.60;92.80;;;;;;4973203;28;20118;-76
2021/12/24 07:20:57;;;;;;;14.48;3.25;;;28.60;93.20;;;;;;4973700;28;20018;-77
2021/12/24 07:23:25;;;;;;;10.02;3.47;;;28.40;93.20;;;;;;4972742;28;20074;-73
2021/12/24 07:25:52;;;;;;;12.95;3.42;;;28.20;93.80;;;;;;4974965;28;20015;-75
2021/12/24 07:28:19;;;;;;;12.80;3.97;;;28.10;93.90;;;;;;4974199;28;20019;-74
2021/12/24 07:30:47;;;;;;;11.60;3.58;;;28.00;94.20;;;;;;4974133;28;20019;-74
2021/12/24 07:33:14;;;;;;;15.75;3.45;;;27.90;94.80;;;;;;4973991;28;20097;-74
2021/12/24 07:35:46;;;;;;;12.13;3.45;;;27.90;94.80;;;;;;4973664;28;20019;-74
2021/12/24 07:38:13;;;;;;;10.98;3.75;;;27.90;94.90;;;;;;4974224;28;20077;-74
2021/12/24 07:40:43;;;;;;;13.60;3.75;;;27.80;95.00;;;;;;4974136;28;20027;-74
2021/12/24 07:43:10;;;;;;;17.10;3.58;;;27.70;95.60;;;;;;4970613;28;20042;-77
2021/12/24 07:45:39;;;;;;;11.13;3.35;;;27.70;95.70;;;;;;4968663;28;20154;-75
2021/12/24 07:48:12;;;;;;;9.23;3.38;;;27.60;95.80;;;;;;4968338;28;20100;-73
2021/12/24 07:53:16;;;;;;;14.73;3.90;;;27.40;96.60;;;;;;4968583;28;20073;-75
2021/12/24 07:55:45;;;;;;;11.20;3.28;;;27.40;96.80;;;;;;4968236;28;20417;-74
2021/12/24 07:58:17;;;;;;;11.38;3.67;;;27.40;97.00;;;;;;4967933;28;20605;-75
2021/12/24 08:00:46;;;;;;;8.18;3.10;;;27.30;97.20;;;;;;4968869;28;20145;-75
2021/12/24 08:03:14;;;;;;;15.45;3.85;;;27.20;97.50;;;;;;4968407;28;20081;-74
2021/12/24 08:05:43;;;;;;;14.50;4.05;;;27.20;97.70;;;;;;4968533;28;20440;-73
2021/12/24 08:08:11;;;;;;;10.40;4.93;;;27.20;97.70;;;;;;4968462;28;20121;-72
2021/12/24 08:10:41;;;;;;;12.40;3.30;;;27.10;97.80;;;;;;4968548;28;20445;-73
2021/12/24 08:13:09;;;;;;;13.63;4.38;;;27.00;98.30;;;;;;4968109;28;20530;-75
2021/12/24 08:15:36;;;;;;;12.25;3.53;;;26.80;98.70;;;;;;4968011;28;20022;-77
2021/12/24 08:18:04;;;;;;;11.40;3.67;;;26.80;99.00;;;;;;4968821;28;20062;-74
2021/12/24 08:20:31;;;;;;;10.32;3.67;;;26.80;99.20;;;;;;4968512;28;20046;-73
2021/12/24 08:22:59;;;;;;;11.75;3.63;;;26.80;99.30;;;;;;4969197;28;20435;-74
2021/12/24 08:25:26;;;;;;;18.30;3.92;;;26.80;99.20;;;;;;4971142;28;20464;-76
2021/12/24 08:27:54;;;;;;;11.10;3.30;;;26.80;99.70;;;;;;4972839;28;20015;-74
2021/12/24 08:30:22;;;;;;;12.48;4.70;;;26.60;99.90;;;;;;4969531;28;20027;-74
2021/12/24 08:32:49;;;;;;;17.25;3.95;;;26.50;99.90;;;;;;4969321;28;20023;-76
2021/12/24 08:35:20;;;;;;;19.02;4.68;;;26.50;99.90;;;;;;4969111;28;20027;-75
2021/12/24 08:37:48;;;;;;;20.50;4.63;;;26.40;99.90;;;;;;4968225;28;20375;-74
2021/12/24 08:40:16;;;;;;;15.43;4.00;;;26.20;99.90;;;;;;4967894;28;20039;-75
2021/12/24 08:42:43;;;;;;;14.15;4.47;;;26.10;99.90;;;;;;4966968;28;20041;-75
2021/12/24 08:45:11;;;;;;;11.75;3.42;;;26.20;99.90;;;;;;4967841;28;20053;-76
2021/12/24 08:47:39;;;;;;;12.18;3.42;;;26.20;99.90;;;;;;4967195;28;20031;-74
2021/12/24 08:50:10;;;;;;;17.27;4.32;;;26.20;99.90;;;;;;4968304;28;20011;-75
2021/12/24 08:52:37;;;;;;;11.50;3.72;;;26.20;99.90;;;;;;4967526;28;20050;-73
2021/12/24 08:55:05;;;;;;;14.82;4.00;;;26.10;99.90;;;;;;4967519;28;20042;-75
2021/12/24 08:57:33;;;;;;;16.25;3.80;;;26.10;99.90;;;;;;4966316;28;20122;-73
2021/12/24 09:00:00;;;;;;;14.75;3.92;;;26.10;99.90;;;;;;4967267;28;20480;-74
2021/12/24 09:02:27;;;;;;;14.15;4.05;;;26.00;99.90;;;;;;4967472;28;20031;-74
2021/12/24 09:04:55;;;;;;;11.63;3.92;;;25.90;99.90;;;;;;4970686;28;20105;-76
2021/12/24 09:07:22;;;;;;;18.88;4.30;;;25.80;99.90;;;;;;4968511;28;20391;-75
2021/12/24 09:09:49;;;;;;;16.50;4.05;;;25.70;99.90;;;;;;4967944;28;20113;-76
2021/12/24 09:12:17;;;;;;;13.57;3.58;;;25.70;99.90;;;;;;4968866;28;20133;-76
2021/12/24 09:14:44;;;;;;;15.45;3.92;;;25.60;99.90;;;;;;4968047;28;20058;-74
2021/12/24 09:17:11;;;;;;;18.25;4.90;;;25.60;99.90;;;;;;4970574;28;20030;-75
2021/12/24 09:19:45;;;;;;;18.42;5.53;;;25.60;99.90;;;;;;4966768;28;20027;-74
2021/12/24 09:22:18;;;;;;;19.83;4.90;;;25.50;99.90;;;;;;4968604;28;20031;-75
2021/12/24 09:24:52;;;;;;;15.40;3.85;;;25.40;99.90;;;;;;4967239;28;20101;-75
2021/12/24 09:27:20;;;;;;;15.25;4.13;;;25.40;99.90;;;;;;4970045;28;20094;-74
2021/12/24 09:29:48;;;;;;;13.43;3.53;;;25.40;99.90;;;;;;4968794;28;20575;-75
2021/12/24 09:32:16;;;;;;;14.40;4.13;;;25.30;99.90;;;;;;4967975;28;20043;-73
2021/12/24 09:34:43;;;;;;;19.13;4.88;;;25.30;99.90;;;;;;4966008;28;20054;-72
2021/12/24 09:37:11;;;;;;;14.77;4.13;;;25.20;99.90;;;;;;4967376;28;20026;-74
2021/12/24 09:39:38;;;;;;;43.53;6.40;;;25.20;99.90;;;;;;4967303;28;20046;-77
2021/12/24 09:42:06;;;;;;;46.17;6.63;;;25.10;99.90;;;;;;4968935;28;20030;-75
2021/12/24 09:44:33;;;;;;;12.68;3.95;;;25.10;99.90;;;;;;4967866;28;20059;-75
2021/12/24 09:47:00;;;;;;;15.95;4.57;;;25.10;99.90;;;;;;4968516;28;20562;-73
2021/12/24 09:49:28;;;;;;;14.07;3.42;;;25.00;99.90;;;;;;4966765;28;20034;-75
2021/12/24 09:51:55;;;;;;;13.82;4.13;;;25.00;99.90;;;;;;4967637;28;20030;-75
2021/12/24 09:54:24;;;;;;;19.95;6.30;;;24.90;99.90;;;;;;4966868;28;20053;-75
2021/12/24 09:56:53;;;;;;;18.52;4.32;;;24.80;99.90;;;;;;4967480;28;20026;-75
2021/12/24 09:59:21;;;;;;;16.58;4.60;;;24.80;99.90;;;;;;4969347;28;20118;-79
2021/12/24 10:01:55;;;;;;;14.55;4.38;;;24.80;99.90;;;;;;4970095;28;20069;-76
2021/12/24 10:04:26;;;;;;;25.10;4.70;;;24.70;99.90;;;;;;4971534;28;20475;-76
2021/12/24 10:07:06;;;;;;;18.05;4.93;;;24.70;99.90;;;;;;4972341;28;20034;-76
2021/12/24 10:09:49;;;;;;;17.35;4.70;;;24.70;99.90;;;;;;4972346;28;20479;-76
2021/12/24 10:12:24;;;;;;;19.48;5.45;;;24.60;99.90;;;;;;4972703;28;20035;-76
2021/12/24 10:14:57;;;;;;;22.80;7.22;;;24.60;99.90;;;;;;4973840;28;20392;-74
2021/12/24 10:17:34;;;;;;;17.80;5.38;;;24.50;99.90;;;;;;4974626;28;20026;-74
2021/12/24 10:20:17;;;;;;;18.77;5.20;;;24.50;99.90;;;;;;4975951;28;20029;-77
2021/12/24 10:22:54;;;;;;;15.50;3.90;;;24.50;99.90;;;;;;4976144;28;20027;-76
2021/12/24 10:25:30;;;;;;;14.27;4.55;;;24.50;99.90;;;;;;4975854;28;20039;-75
2021/12/24 10:28:09;;;;;;;16.40;4.97;;;24.50;99.90;;;;;;4975813;28;20034;-76
2021/12/24 10:30:36;;;;;;;17.13;4.10;;;24.40;99.90;;;;;;4974800;28;20034;-76
2021/12/24 10:33:11;;;;;;;21.90;4.80;;;24.30;99.90;;;;;;4975349;28;20019;-77
2021/12/24 10:35:38;;;;;;;19.23;4.55;;;24.40;99.90;;;;;;4975130;28;20035;-75
2021/12/24 10:38:16;;;;;;;16.48;4.82;;;24.40;99.90;;;;;;4969437;28;20046;-75
2021/12/24 10:41:13;;;;;;;20.60;4.70;;;24.40;99.90;;;;;;4955561;28;20392;-74
2021/12/24 10:43:42;;;;;;;18.15;5.40;;;24.50;99.90;;;;;;4943709;28;20036;-76
2021/12/24 10:46:13;;;;;;;19.70;6.22;;;24.50;99.90;;;;;;4955608;28;20094;-77
2021/12/24 10:49:00;;;;;;;16.00;4.30;;;24.50;99.90;;;;;;4954145;28;20039;-75
2021/12/24 10:54:13;;;;;;;22.73;4.97;;;24.50;99.90;;;;;;4955862;28;20456;-75
2021/12/24 10:56:40;;;;;;;17.35;6.07;;;24.50;99.90;;;;;;4955552;28;20023;-76
2021/12/24 10:59:07;;;;;;;16.65;5.00;;;24.50;99.90;;;;;;4955245;28;20031;-76
2021/12/24 11:01:35;;;;;;;18.38;5.38;;;24.50;99.90;;;;;;4955154;28;20042;-74
2021/12/24 11:04:02;;;;;;;19.10;4.65;;;24.40;99.90;;;;;;4955523;28;20031;-77
2021/12/24 11:06:33;;;;;;;18.13;5.55;;;24.40;99.90;;;;;;4955656;28;20030;-76
2021/12/24 11:09:01;;;;;;;16.60;5.35;;;24.40;99.90;;;;;;4956006;28;20023;-77
2021/12/24 11:11:38;;;;;;;19.73;4.70;;;24.50;99.90;;;;;;4955227;28;20027;-75
2021/12/24 11:14:18;;;;;;;16.60;4.47;;;24.50;99.90;;;;;;4953470;28;20071;-76
2021/12/24 11:16:45;;;;;;;21.92;5.25;;;24.50;99.90;;;;;;4955341;28;20019;-77
2021/12/24 11:19:13;;;;;;;24.42;5.43;;;24.50;99.90;;;;;;4955560;28;20187;-75
2021/12/24 11:21:40;;;;;;;18.25;4.60;;;24.50;99.90;;;;;;4955052;28;20505;-75
2021/12/24 11:24:08;;;;;;;14.70;3.88;;;24.50;99.90;;;;;;4955044;28;20087;-76
2021/12/24 11:26:48;;;;;;;17.67;5.32;;;24.50;99.90;;;;;;4954944;28;20078;-76
2021/12/24 11:29:16;;;;;;;17.83;6.35;;;24.50;99.90;;;;;;4953843;28;20485;-78
2021/12/24 11:31:44;;;;;;;20.35;6.38;;;24.40;99.90;;;;;;4953935;28;20019;-77
2021/12/24 11:34:12;;;;;;;16.13;4.78;;;24.40;99.90;;;;;;4954732;28;20032;-74
2021/12/24 11:36:39;;;;;;;20.45;5.10;;;24.40;99.90;;;;;;4955083;29;20043;-78
2021/12/24 11:39:07;;;;;;;19.05;5.75;;;24.40;99.90;;;;;;4955252;28;20118;-76
2021/12/24 11:41:36;;;;;;;17.40;4.47;;;24.40;99.90;;;;;;4955272;28;20020;-77
2021/12/24 11:44:07;;;;;;;18.27;4.53;;;24.30;99.90;;;;;;4954837;28;20035;-77
2021/12/24 11:46:40;;;;;;;16.50;4.80;;;24.20;99.90;;;;;;4954960;28;20065;-74
2021/12/24 11:49:07;;;;;;;18.00;5.22;;;24.30;99.90;;;;;;4954630;28;20037;-77
2021/12/24 11:51:43;;;;;;;19.55;5.38;;;24.30;99.90;;;;;;4954757;28;20015;-73
2021/12/24 11:54:13;;;;;;;18.77;5.15;;;24.40;99.90;;;;;;4952937;28;20039;-72
2021/12/24 11:56:54;;;;;;;20.00;4.82;;;24.30;99.90;;;;;;4954267;28;20027;-74
2021/12/24 11:59:41;;;;;;;17.95;4.60;;;24.40;99.90;;;;;;4954007;28;20032;-74
2021/12/24 12:02:08;;;;;;;28.02;6.50;;;24.40;99.90;;;;;;4954285;28;20098;-74
2021/12/24 12:04:36;;;;;;;20.25;5.68;;;24.40;99.90;;;;;;4954377;28;20026;-72
2021/12/24 12:07:16;;;;;;;22.58;5.47;;;24.40;99.90;;;;;;4954354;28;20071;-73
2021/12/24 12:09:45;;;;;;;25.35;6.00;;;24.40;99.90;;;;;;4953289;28;20030;-73
2021/12/24 12:12:16;;;;;;;17.02;4.43;;;24.40;99.90;;;;;;4954799;28;20372;-73
2021/12/24 12:14:43;;;;;;;20.48;4.78;;;24.40;99.90;;;;;;4954349;28;20046;-73
2021/12/24 12:17:24;;;;;;;22.23;5.53;;;24.40;99.90;;;;;;4954341;28;20106;-77
2021/12/24 12:20:00;;;;;;;19.45;5.10;;;24.40;99.90;;;;;;4952894;28;20380;-73
2021/12/24 12:25:11;;;;;;;17.67;6.07;;;24.30;99.90;;;;;;4954116;28;20134;-75
2021/12/24 12:27:38;;;;;;;24.83;5.40;;;24.40;99.90;;;;;;4954423;28;20065;-73
2021/12/24 12:30:21;;;;;;;22.80;4.90;;;24.40;99.90;;;;;;4955191;28;20490;-76
2021/12/24 12:32:49;;;;;;;18.23;4.88;;;24.40;99.90;;;;;;4954026;28;20039;-75
2021/12/24 12:35:17;;;;;;;15.45;4.80;;;24.40;99.90;;;;;;4954021;28;20106;-74
2021/12/24 12:37:49;;;;;;;15.57;4.28;;;24.40;99.90;;;;;;4954551;28;20027;-73
2021/12/24 12:40:19;;;;;;;20.45;5.57;;;24.40;99.90;;;;;;4954163;28;20175;-74
2021/12/24 12:42:54;;;;;;;19.77;5.57;;;24.30;99.90;;;;;;4952539;28;20432;-76
2021/12/24 12:45:23;;;;;;;16.50;4.97;;;24.40;99.90;;;;;;4953963;28;20046;-75
2021/12/24 12:48:00;;;;;;;19.90;5.80;;;24.30;99.90;;;;;;4953420;28;20026;-76
2021/12/24 12:50:29;;;;;;;15.70;5.35;;;24.40;99.90;;;;;;4953757;28;20023;-79
2021/12/24 12:53:40;;;;;;;26.35;5.88;;;24.30;99.90;;;;;;4952364;28;20373;-76
2021/12/24 12:56:13;;;;;;;14.70;5.10;;;24.40;99.90;;;;;;4953751;28;20070;-79
2021/12/24 12:58:45;;;;;;;22.33;7.00;;;24.30;99.90;;;;;;4953969;28;20086;-73
2021/12/24 13:01:18;;;;;;;18.95;5.93;;;24.30;99.90;;;;;;4952452;28;20027;-74
2021/12/24 13:03:56;;;;;;;;;;;24.30;99.90;;;;;;4953368;28;20027;-77
2021/12/24 13:06:25;;;;;;;16.63;5.18;;;24.30;99.90;;;;;;4953662;28;19989;-75
2021/12/24 13:08:56;;;;;;;20.27;5.45;;;24.30;99.90;;;;;;4953876;28;20115;-75
2021/12/24 13:11:23;;;;;;;16.23;4.70;;;24.20;99.90;;;;;;4952362;28;20023;-73
2021/12/24 13:13:57;;;;;;;18.48;4.75;;;24.20;99.90;;;;;;4952083;28;20039;-77
2021/12/24 13:16:31;;;;;;;20.13;5.43;;;24.10;99.90;;;;;;4953531;28;20032;-74
2021/12/24 13:19:21;;;;;;;18.98;4.57;;;24.10;99.90;;;;;;4953716;28;20023;-78
2021/12/24 13:24:53;;;;;;;17.60;5.40;;;24.00;99.90;;;;;;4953306;28;20137;-73
2021/12/24 13:27:27;;;;;;;17.85;4.80;;;24.00;99.90;;;;;;4952520;28;20031;-74
2021/12/24 13:30:06;;;;;;;16.45;4.72;;;24.00;99.90;;;;;;4953487;28;20024;-79
2021/12/24 13:32:55;;;;;;;21.48;5.50;;;23.90;99.90;;;;;;4953397;28;20034;-75
2021/12/24 13:35:44;;;;;;;19.33;5.70;;;23.90;99.90;;;;;;4953286;28;20358;-75
2021/12/24 13:38:23;;;;;;;20.55;5.40;;;23.80;99.90;;;;;;4953066;28;20523;-78
2021/12/24 13:40:50;;;;;;;23.17;5.85;;;23.80;99.90;;;;;;4952769;28;20491;-75
2021/12/24 13:43:19;;;;;;;17.65;4.60;;;23.80;99.90;;;;;;4952766;28;20383;-75
2021/12/24 13:45:50;;;;;;;21.00;5.38;;;23.70;99.90;;;;;;4953109;28;20062;-76
2021/12/24 13:48:28;;;;;;;20.17;6.80;;;23.70;99.90;;;;;;4955497;28;20027;-73
2021/12/24 13:56:42;;;;;;;19.23;5.60;;;23.60;99.90;;;;;;4957873;28;20042;-74
2021/12/24 13:59:11;;;;;;;20.50;5.50;;;23.50;99.90;;;;;;4957871;28;20102;-76
2021/12/24 14:01:40;;;;;;;26.75;6.47;;;23.50;99.90;;;;;;4957279;28;20031;-77
2021/12/24 14:04:09;;;;;;;24.00;6.45;;;23.50;99.90;;;;;;4957190;28;20109;-74
2021/12/24 14:06:39;;;;;;;18.42;4.78;;;23.40;99.90;;;;;;4957506;28;20467;-75
2021/12/24 14:09:13;;;;;;;17.70;5.90;;;23.40;99.90;;;;;;4958093;28;20027;-74
2021/12/24 14:11:42;;;;;;;17.42;5.75;;;23.40;99.90;;;;;;4958076;28;20023;-72
2021/12/24 14:14:18;;;;;;;15.90;5.78;;;23.40;99.90;;;;;;4957353;28;20039;-75
2021/12/24 14:19:28;;;;;;;23.92;6.30;;;23.40;99.90;;;;;;4957530;28;20059;-75
2021/12/24 14:22:10;;;;;;;18.50;5.40;;;23.40;99.90;;;;;;4957339;28;20445;-76
2021/12/24 14:24:49;;;;;;;24.95;6.40;;;23.30;99.90;;;;;;4956647;28;20047;-75
2021/12/24 14:27:18;;;;;;;19.95;6.13;;;23.30;99.90;;;;;;4956937;28;20480;-75
2021/12/24 14:29:53;;;;;;;22.00;6.43;;;23.30;99.90;;;;;;4956577;28;20126;-74
2021/12/24 14:32:39;;;;;;;16.45;4.90;;;23.30;99.90;;;;;;4956572;28;20023;-75
2021/12/24 14:35:25;;;;;;;24.52;7.22;;;23.20;99.90;;;;;;4956329;28;20027;-72
2021/12/24 14:37:58;;;;;;;16.50;5.15;;;23.20;99.90;;;;;;4955747;28;20031;-75
2021/12/24 14:40:27;;;;;;;15.68;5.13;;;23.10;99.90;;;;;;4956493;28;20028;-74
2021/12/24 14:42:55;;;;;;;24.52;6.72;;;23.10;99.90;;;;;;4956824;28;20046;-78
2021/12/24 14:45:41;;;;;;;20.08;6.47;;;23.10;99.90;;;;;;4957017;28;20470;-73
2021/12/24 14:48:13;;;;;;;19.05;6.90;;;23.10;99.90;;;;;;4956422;28;20476;-74
2021/12/24 14:50:48;;;;;;;17.58;6.80;;;23.10;99.90;;;;;;4956697;28;20749;-74
2021/12/24 14:53:28;;;;;;;18.73;5.97;;;23.00;99.90;;;;;;4956212;28;20035;-74
2021/12/24 14:55:58;;;;;;;17.80;5.47;;;23.10;99.90;;;;;;4956058;28;20452;-78